Newlead Avra — V7IK7 — position and weather

sailwx.info

Track history (hours):
 
Tides and Currents Weather Stations Pressure Air Temp Water Temp Dewpoint Dewpoint Depression Visibility Wind Speed Wind Dir Waves Ship Positions

Newlead Avra

Last reported at 2017-Sep-19 00:00 UTC. Time now 2017-Sep-19 22:41 UTC.
Position N 23°24' W 120°18'.

Length 234 m; draft 6 m.

Type: Ship (hazmat cat C). MMSI: 538002394.

Wind from 050 at 21 knots

Barometer 1015.0 mb
Air temperature 24.0 ° C
Visibility: greater than 5.4 NM
Water temperature 21.0 ° C

Date/timePositionNaut miles runAvg speedWind from/ knotsBaromVisibWave heightAir tempDewpointWater temp
2017-Sep-19 00:00N 23°24' W 120°18'7719.4 050 / 211015.0 5.4 24.0 21.0
2017-Sep-18 20:00N 22°36' W 119°12'33119.4 050 / 211014.0 5.4 26.0 22.0
2017-Sep-18 02:53N 19°16' W 114°29'7719.7
2017-Sep-17 23:00N 18°30' W 113°24'42717.8 320 / 201010.0 5.4 28.0 25.0
2017-Sep-16 23:00N 16°18' W 106°18'7518.8 210 / 221012.0 5.4 30.0 26.0
2017-Sep-16 19:00N 16°12' W 105°00'37217.7 210 / 171015.0 5.4 31.0 27.0
2017-Sep-15 22:00N 14°54' W 098°42'7318.3 270 / 101010.0 5.4 30.0 27.0
2017-Sep-15 18:00N 14°18' W 097°36'36218.1 320 / 111013.0 5.4 31.0 28.0
2017-Sep-14 22:00N 11°12' W 092°18'7719.3 050 / 71010.010.8 30.0 26.0
2017-Sep-14 18:00N 10°30' W 091°12'5348314.6 050 / 101013.010.8 29.0 27.0
2017-Sep-14 01:00N 08°12' W 000°54'50141253.5 230 / 81010.0 5.4 28.0 25.0
2017-Sep-13 21:00N 07°54' W 085°18'   270 / 101012.0 5.4 29.0 25.0
2017-Sep-10 11:23N 09°14' W 079°56'1 1.4
2017-Sep-10 11:00N 09°14' W 079°56'2 4.5
2017-Sep-10 10:30N 09°16' W 079°55'0 0.5
2017-Sep-10 10:00N 09°16' W 079°55'0 0.4
2017-Sep-10 09:30N 09°17' W 079°55'0 0.3
2017-Sep-10 09:00N 09°17' W 079°55'1 1.5
2017-Sep-10 08:30N 09°17' W 079°55'2 4.9
2017-Sep-10 08:00N 09°20' W 079°55'3 7.0
2017-Sep-10 07:30N 09°23' W 079°55'3 5.6
2017-Sep-10 07:00N 09°26' W 079°56'0 0.6
2017-Sep-10 06:30N 09°26' W 079°56'0 0.1
2017-Sep-10 06:00N 09°26' W 079°56'0 0.1
2017-Sep-10 05:30N 09°26' W 079°56'0 0.0
2017-Sep-10 05:00N 09°26' W 079°56'0 0.1
2017-Sep-10 04:30N 09°26' W 079°56'0 0.1
2017-Sep-10 04:00N 09°26' W 079°56'0 0.0
2017-Sep-10 03:30N 09°26' W 079°56'0 0.0
2017-Sep-10 03:00N 09°26' W 079°56'0 0.0
2017-Sep-10 02:30N 09°26' W 079°56'0 0.0
2017-Sep-10 02:00N 09°26' W 079°56'0 0.0
2017-Sep-10 01:30N 09°26' W 079°56'0 0.0
2017-Sep-10 00:57N 09°26' W 079°56'0 0.0
2017-Sep-10 00:30N 09°26' W 079°56'0 0.0
2017-Sep-10 00:00N 09°26' W 079°56'0 0.0
2017-Sep-09 23:27N 09°26' W 079°56'0 0.0
2017-Sep-09 23:00N 09°26' W 079°56'0 0.0
2017-Sep-09 22:30N 09°26' W 079°56'0 0.0
2017-Sep-09 22:00N 09°26' W 079°56'1 1.5
2017-Sep-09 21:30N 09°26' W 079°55'4 8.0
2017-Sep-09 21:00N 09°23' W 079°54'1 1.7
2017-Sep-09 20:29N 09°22' W 079°53'0 0.0
2017-Sep-09 19:59N 09°22' W 079°53'0 0.0
2017-Sep-09 19:29N 09°22' W 079°53'0 0.0
2017-Sep-09 18:59N 09°22' W 079°53'0 0.0
2017-Sep-09 18:29N 09°22' W 079°53'0 0.0
2017-Sep-09 17:59N 09°22' W 079°53'0 0.0
2017-Sep-09 17:29N 09°22' W 079°53'0 0.0
2017-Sep-09 16:59N 09°22' W 079°53'0 0.0
2017-Sep-09 16:29N 09°22' W 079°53'0 0.0
2017-Sep-09 15:59N 09°22' W 079°53'0 0.0
2017-Sep-09 15:29N 09°22' W 079°53'0 0.0
2017-Sep-09 14:59N 09°22' W 079°53'0 0.0
2017-Sep-09 14:29N 09°22' W 079°53'0 0.0
2017-Sep-09 13:59N 09°22' W 079°53'0 0.0
2017-Sep-09 13:29N 09°22' W 079°53'0 0.0
2017-Sep-09 12:59N 09°22' W 079°53'0 0.0
2017-Sep-09 12:29N 09°22' W 079°53'0 0.0
2017-Sep-09 11:59N 09°22' W 079°53'0 0.0
2017-Sep-09 11:29N 09°22' W 079°53'0 0.0
2017-Sep-09 10:59N 09°22' W 079°53'0 0.0
2017-Sep-09 10:30N 09°22' W 079°53'0 0.7
2017-Sep-09 10:00N 09°22' W 079°54'3 5.7
2017-Sep-09 09:30N 09°25' W 079°54'2 4.8
2017-Sep-09 09:01N 09°27' W 079°53'1 2.8
2017-Sep-09 08:30N 09°29' W 079°53'612.0
2017-Sep-09 08:01N 09°35' W 079°52'33 4.1
2017-Sep-09 00:00N 10°06' W 079°42'   300 / 41012.0 5.4 29.0 27.0
Track history (hours):
 
Tides and Currents Weather Stations Pressure Air Temp Water Temp Dewpoint Dewpoint Depression Visibility Wind Speed Wind Dir Waves Ship Positions

Newlead Avra

Last reported at 2017-Sep-19 00:00 UTC. Time now 2017-Sep-19 22:41 UTC.
Position N 23°24' W 120°18'.

Length 234 m; draft 6 m.

Type: Ship (hazmat cat C). MMSI: 538002394.

Wind from 050 at 21 knots

Barometer 1015.0 mb
Air temperature 24.0 ° C
Visibility: greater than 5.4 NM
Water temperature 21.0 ° C

Date/timePositionNaut miles runAvg speedWind from/ knotsBaromVisibWave heightAir tempDewpointWater temp
2017-Sep-19 00:00N 23°24' W 120°18'7719.4 050 / 211015.0 5.4 24.0 21.0
2017-Sep-18 20:00N 22°36' W 119°12'33119.4 050 / 211014.0 5.4 26.0 22.0
2017-Sep-18 02:53N 19°16' W 114°29'7719.7
2017-Sep-17 23:00N 18°30' W 113°24'42717.8 320 / 201010.0 5.4 28.0 25.0
2017-Sep-16 23:00N 16°18' W 106°18'7518.8 210 / 221012.0 5.4 30.0 26.0
2017-Sep-16 19:00N 16°12' W 105°00'37217.7 210 / 171015.0 5.4 31.0 27.0
2017-Sep-15 22:00N 14°54' W 098°42'7318.3 270 / 101010.0 5.4 30.0 27.0
2017-Sep-15 18:00N 14°18' W 097°36'36218.1 320 / 111013.0 5.4 31.0 28.0
2017-Sep-14 22:00N 11°12' W 092°18'7719.3 050 / 71010.010.8 30.0 26.0
2017-Sep-14 18:00N 10°30' W 091°12'5348314.6 050 / 101013.010.8 29.0 27.0
2017-Sep-14 01:00N 08°12' W 000°54'50141253.5 230 / 81010.0 5.4 28.0 25.0
2017-Sep-13 21:00N 07°54' W 085°18'   270 / 101012.0 5.4 29.0 25.0
2017-Sep-10 11:23N 09°14' W 079°56'1 1.4
2017-Sep-10 11:00N 09°14' W 079°56'2 4.5
2017-Sep-10 10:30N 09°16' W 079°55'0 0.5
2017-Sep-10 10:00N 09°16' W 079°55'0 0.4
2017-Sep-10 09:30N 09°17' W 079°55'0 0.3
2017-Sep-10 09:00N 09°17' W 079°55'1 1.5
2017-Sep-10 08:30N 09°17' W 079°55'2 4.9
2017-Sep-10 08:00N 09°20' W 079°55'3 7.0
2017-Sep-10 07:30N 09°23' W 079°55'3 5.6
2017-Sep-10 07:00N 09°26' W 079°56'0 0.6
2017-Sep-10 06:30N 09°26' W 079°56'0 0.1
2017-Sep-10 06:00N 09°26' W 079°56'0 0.1
2017-Sep-10 05:30N 09°26' W 079°56'0 0.0
2017-Sep-10 05:00N 09°26' W 079°56'0 0.1
2017-Sep-10 04:30N 09°26' W 079°56'0 0.1
2017-Sep-10 04:00N 09°26' W 079°56'0 0.0
2017-Sep-10 03:30N 09°26' W 079°56'0 0.0
2017-Sep-10 03:00N 09°26' W 079°56'0 0.0
2017-Sep-10 02:30N 09°26' W 079°56'0 0.0
2017-Sep-10 02:00N 09°26' W 079°56'0 0.0
2017-Sep-10 01:30N 09°26' W 079°56'0 0.0
2017-Sep-10 00:57N 09°26' W 079°56'0 0.0
2017-Sep-10 00:30N 09°26' W 079°56'0 0.0
2017-Sep-10 00:00N 09°26' W 079°56'0 0.0
2017-Sep-09 23:27N 09°26' W 079°56'0 0.0
2017-Sep-09 23:00N 09°26' W 079°56'0 0.0
2017-Sep-09 22:30N 09°26' W 079°56'0 0.0
2017-Sep-09 22:00N 09°26' W 079°56'1 1.5
2017-Sep-09 21:30N 09°26' W 079°55'4 8.0
2017-Sep-09 21:00N 09°23' W 079°54'1 1.7
2017-Sep-09 20:29N 09°22' W 079°53'0 0.0
2017-Sep-09 19:59N 09°22' W 079°53'0 0.0
2017-Sep-09 19:29N 09°22' W 079°53'0 0.0
2017-Sep-09 18:59N 09°22' W 079°53'0 0.0
2017-Sep-09 18:29N 09°22' W 079°53'0 0.0
2017-Sep-09 17:59N 09°22' W 079°53'0 0.0
2017-Sep-09 17:29N 09°22' W 079°53'0 0.0
2017-Sep-09 16:59N 09°22' W 079°53'0 0.0
2017-Sep-09 16:29N 09°22' W 079°53'0 0.0
2017-Sep-09 15:59N 09°22' W 079°53'0 0.0
2017-Sep-09 15:29N 09°22' W 079°53'0 0.0
2017-Sep-09 14:59N 09°22' W 079°53'0 0.0
2017-Sep-09 14:29N 09°22' W 079°53'0 0.0
2017-Sep-09 13:59N 09°22' W 079°53'0 0.0
2017-Sep-09 13:29N 09°22' W 079°53'0 0.0
2017-Sep-09 12:59N 09°22' W 079°53'0 0.0
2017-Sep-09 12:29N 09°22' W 079°53'0 0.0
2017-Sep-09 11:59N 09°22' W 079°53'0 0.0
2017-Sep-09 11:29N 09°22' W 079°53'0 0.0
2017-Sep-09 10:59N 09°22' W 079°53'0 0.0
2017-Sep-09 10:30N 09°22' W 079°53'0 0.7
2017-Sep-09 10:00N 09°22' W 079°54'3 5.7
2017-Sep-09 09:30N 09°25' W 079°54'2 4.8
2017-Sep-09 09:01N 09°27' W 079°53'1 2.8
2017-Sep-09 08:30N 09°29' W 079°53'612.0
2017-Sep-09 08:01N 09°35' W 079°52'33 4.1
2017-Sep-09 00:00N 10°06' W 079°42'   300 / 41012.0 5.4 29.0 27.0

Dump ship's entire track history